Terminal Aerodrome Forecast
Issued by NWS

Home | Current Version | Previous Version | Text Only | Print | Product List | Glossary On
Versions: 1 2 3 4 5 6 7 8 9 10 11 12
000
FTUS45 KRIW 222300
TAFLND
TAF
KLND 222335Z 2300/2324 27010G18KT P6SM VCSH SCT050 BKN080
      WS020/27035KT
     FM230200 28015G25KT P6SM VCSH SCT020 BKN050
     FM230700 26009KT P6SM SCT050 BKN100
     FM231600 31013G23KT P6SM SCT110=

USA.gov is the U.S. government's official web portal to all federal, state and local government web resources and services.